• Join FlightAware (Why Join?)
  • Login
  • US Flag 
07:41AM EDT


 

Airport Tracker/Info


-or-


 

Live Flight TrackerFlight Track Log ✈ AWE1056 ✈ 24-Jun-2013 ✈ MYNN / NAS - KCLT

Flight Track Log - Related Links

Times and Time Zones

All times are in EDT time to prevent confusion due to time zone crossing. See the AWE1056 flight status page for this flight to view local times or setup timezone preferences in your user account.

Time Position Orientation Groundspeed Altitude Reporting Facility
EDT Latitude Longitude Course Direction KTS MPH feet Rate Location/Type
04:41PM 24.9989 -77.4069 24° Northeast 334 384 3,700  Level Miami Center
04:42PM 25.0450 -77.3611 42° Northeast 187 215 5,400 2,400 Climbing Miami Center
04:43PM 25.3761 -77.2620 24° Northeast  Level FlightAware Approximate
04:43PM 25.1161 -77.3386 16° North 187 215 8,500  Level Miami Center
04:44PM 25.4899 -77.1967 24° Northeast  Level FlightAware Approximate
04:44PM 25.1997 -77.3389 360° North 214 246 10,800  Level Miami Center
04:45PM 25.6063 -77.1367 26° Northeast  Level FlightAware Approximate
04:45PM 25.2897 -77.3139 14° North 283 326 12,900  Level Miami Center
04:46PM 25.7220 -77.0750 26° Northeast  Level FlightAware Approximate
04:46PM 25.3817 -77.2658 25° Northeast 328 377 15,300  Level Miami Center
04:47PM 25.8382 -77.0143 24° Northeast  Level FlightAware Approximate
04:47PM 25.4758 -77.2178 25° Northeast 346 398 17,700  Level Miami Center
04:48PM 25.5700 -77.1697 25° Northeast 364 419 19,600 1,980 Climbing Miami Center
04:49PM 25.6744 -77.1469 11° North 364 419 21,800 1,860 Climbing Miami Center
04:50PM 25.7831 -77.1656 351° North 371 427 23,400 1,620 Climbing Miami Center
04:51PM 25.8958 -77.1892 349° North 391 450 25,100 1,560 Climbing Miami Center
04:52PM 26.0150 -77.2103 351° North 405 466 26,600 1,560 Climbing Miami Center
04:53PM 26.1319 -77.2361 349° North 419 482 28,200 1,260 Climbing Miami Center
04:54PM 26.2531 -77.2594 350° North 431 496 29,200 1,080 Climbing Miami Center
04:55PM 26.3806 -77.2831 351° North 448 516 30,400 2,880 Climbing Miami Center
04:56PM 26.5036 -77.3161 346° North 453 521 35,000 1,380 Climbing Miami Center
04:57PM 26.6289 -77.3375 351° North 453 521 33,200  Descending Miami Center
04:58PM 26.7522 -77.3636 349° North 448 516 35,000 900 Climbing Miami Center
04:59PM 26.8711 -77.3828 352° North 443 510 35,000  Level Miami Center
05:00PM 26.9942 -77.4089 349° North 443 510 35,000  Level Miami Center
05:01PM 27.1175 -77.4306 351° North 443 510 35,000  Level Miami Center
05:02PM 27.2447 -77.4614 348° North 443 510 35,000  Level Miami Center
05:03PM 27.3367 -77.4642 358° North 443 510 35,000  Level Miami Center
05:04PM 27.4700 -77.5211 339° North 450 518 35,000  Level Miami Center
05:05PM 27.5869 -77.5594 344° North 438 504 35,000 -60 Level Miami Center
05:06PM 27.6994 -77.5928 345° North 430 495 34,900  Descending Miami Center
05:07PM 27.8267 -77.6314 345° North 430 495 35,000  Climbing Miami Center
05:08PM 27.9433 -77.6697 344° North 430 495 35,000  Level Miami Center
05:09PM 28.0600 -77.7106 343° North 437 503 35,000  Level Miami Center
05:10PM 28.1808 -77.7514 343° North 437 503 35,000  Level Miami Center
05:11PM 28.2956 -77.7900 343° North 436 502 35,000  Level Miami Center
05:12PM 28.4433 -77.8339 345° North 436 502 35,000  Level Miami Center
05:13PM 28.5369 -77.8725 340° North 429 494 35,000  Level Miami Center
05:14PM 28.6536 -77.9114 344° North 441 507 35,000  Level Miami Center
05:15PM 28.7722 -77.9528 343° North 446 513 35,000  Level Miami Center
05:16PM 28.8908 -77.9942 343° North 441 507 35,000  Level Miami Center
05:17PM 29.0075 -78.0333 344° North 436 502 35,000  Level Miami Center
05:18PM 29.1219 -78.0725 343° North 436 502 35,000  Level Miami Center
05:19PM 29.2425 -78.1144 343° North 436 502 35,000  Level Miami Center
05:20PM 29.3797 -78.1636 343° North 441 507 35,000  Level Miami Center
05:21PM 29.4881 -78.1983 344° North 437 503 35,000  Level Miami Center
05:22PM 29.5939 -78.2378 342° North 442 509 35,000  Level Miami Center
05:26PM 29.9603 -78.3500 345° North 426 490 35,000  Level Jacksonville Center
05:27PM 30.0964 -78.3675 354° North 440 506 35,000  Level Jacksonville Center
05:28PM 30.2133 -78.3669 360° North 445 512 35,000  Level Jacksonville Center
05:29PM 30.3386 -78.3706 359° North 448 516 35,000  Level Jacksonville Center
05:30PM 30.4639 -78.3717 360° North 448 516 35,000  Level Jacksonville Center
05:31PM 30.5914 -78.3778 358° North 442 509 35,000  Level Jacksonville Center
05:32PM 30.7167 -78.3792 359° North 442 509 35,000  Level Jacksonville Center
05:33PM 30.8358 -78.3806 359° North 442 509 35,000  Level Jacksonville Center
05:34PM 30.9550 -78.3822 359° North 442 509 35,000  Level Jacksonville Center
05:35PM 31.0906 -78.3831 360° North 447 514 35,000  Level Jacksonville Center
05:36PM 31.2078 -78.3919 356° North 442 509 35,000  Level Jacksonville Center
05:37PM 31.3372 -78.3906 North 442 509 35,000  Level Jacksonville Center
05:38PM 31.4583 -78.3969 357° North 442 509 35,000  Level Jacksonville Center
05:39PM 31.5858 -78.4006 359° North 442 509 35,000  Level Jacksonville Center
05:40PM 31.7111 -78.4019 359° North 447 514 35,000  Level Jacksonville Center
05:41PM 31.8367 -78.4081 358° North 447 514 35,000  Level Jacksonville Center
05:42PM 31.9619 -78.4092 360° North 447 514 35,000  Level Jacksonville Center
05:43PM 32.0914 -78.4103 360° North 447 514 35,000  Level Jacksonville Center
05:44PM 32.2128 -78.4167 357° North 447 514 35,000 -180 Level Jacksonville Center
05:45PM 32.3525 -78.4194 359° North 448 516 34,700 -660 Descending Jacksonville Center
05:46PM 32.4536 -78.5031 325° Northwest 426 490 33,700 -960 Descending Jacksonville Center
05:47PM 32.5017 -78.6217 296° West 411 473 32,800 -960 Descending Jacksonville Center
05:48PM 32.5356 -78.7628 286° West 416 479 31,800 -900 Descending Jacksonville Center
05:49PM 32.5775 -78.8989 290° West 426 490 31,000 -420 Descending Jacksonville Center
05:50PM 32.6172 -79.0353 289° West 436 502 31,000  Level Jacksonville Center
05:51PM 32.6567 -79.1742 289° West 441 507 31,000 -480 Level Jacksonville Center
05:52PM 32.6942 -79.3083 288° West 435 501 30,100 -960 Descending Jacksonville Center
05:53PM 32.7311 -79.4453 288° West 435 501 29,100 -1,020 Descending Jacksonville Center
05:54PM 32.7703 -79.5822 289° West 435 501 28,100 -1,020 Descending Jacksonville Center
05:55PM 32.8072 -79.7167 288° West 435 501 27,100 -1,020 Descending Jacksonville Center
05:56PM 32.8439 -79.8514 288° West 435 501 26,100 -1,020 Descending Jacksonville Center
05:57PM 32.8908 -79.9783 294° West 435 501 25,100 -1,020 Descending Jacksonville Center
05:58PM 32.9983 -80.0244 340° North 394 453 24,100 -960 Descending Jacksonville Center
05:59PM 33.1192 -80.0206 North 364 419 23,200 -960 Descending Jacksonville Center
06:00PM 33.2344 -80.0442 350° North 395 455 22,200 -1,020 Descending Jacksonville Center
06:01PM 33.3458 -80.0681 350° North 406 467 21,200 -1,140 Descending Jacksonville Center
06:02PM 33.4672 -80.0939 350° North 406 467 20,000 -600 Descending Jacksonville Center
06:03PM 33.5806 -80.1153 351° North 412 474 20,000  Level Jacksonville Center
06:04PM 33.6894 -80.1369 351° North 407 468 20,000  Level Jacksonville Center
06:05PM 33.8006 -80.1583 351° North 402 463 20,000  Level Jacksonville Center
06:06PM 33.9075 -80.1800 350° North 397 457 20,000 -1,140 Level Jacksonville Center
06:07PM 34.0142 -80.2019 350° North 391 450 17,800 -1,560 Descending Jacksonville Center
06:08PM 34.1211 -80.2211 352° North 391 450 16,900 -1,800 Descending Jacksonville Center
06:09PM 34.2258 -80.2431 350° North 391 450 14,300 -2,700 Descending Jacksonville Center
06:10PM 34.3328 -80.2700 348° North 391 450 11,500 -1,740 Descending Jacksonville Center
06:11PM 34.4353 -80.2869 352° North 391 450 10,900 -180 Descending Jacksonville Center
06:13PM 34.6544 -80.3319 350° North 353 406 11,000  Climbing Atlanta Center
06:14PM 34.7397 -80.3914 330° Northwest 282 325 11,000  Level Atlanta Center
06:15PM 34.7981 -80.4622 315° West 291 335 11,000  Level Atlanta Center
06:16PM 34.8522 -80.5256 316° Northwest 295 339 11,000  Level Atlanta Center
06:17PM 34.9064 -80.5967 313° West 292 336 11,000 -60 Level Atlanta Center
06:18PM 34.9603 -80.6631 315° West 289 333 10,900 -540 Descending Atlanta Center
06:19PM 35.0144 -80.7344 313° West 288 331 10,000 -660 Descending Atlanta Center
06:20PM 35.0811 -80.8103 317° Northwest 288 331 9,500 -540 Descending Atlanta Center
06:21PM 35.1586 -80.8200 354° North 275 316 8,900 -900 Descending Atlanta Center
06:22PM 35.2203 -80.7872 23° Northeast 246 283 7,700 -1,560 Descending Atlanta Center
06:23PM 35.2606 -80.7322 48° Northeast 243 280 6,000 -2,160 Descending Atlanta Center